Time;durP1;ratioP1;P1;durP2;ratioP2;P2;SDS_P1;SDS_P2;PMS_P1;PMS_P2;Temp;Humidity;BMP_temperature;BMP_pressure;BME280_temperature;BME280_humidity;BME280_pressure;Samples;Min_cycle;Max_cycle;Signal;HPM_P1;HPM_P2
2021/04/20 02:47:05;;;;;;;14.07;12.77;;;5.10;99.90;;;;;;5116869;23;88363;-85
2021/04/20 02:49:31;;;;;;;14.70;13.40;;;5.10;99.90;;;;;;4947041;28;86931;-85
2021/04/20 02:51:57;;;;;;;13.30;12.10;;;5.10;99.90;;;;;;4947238;28;86284;-86
2021/04/20 02:54:23;;;;;;;19.15;17.63;;;5.20;99.90;;;;;;4948078;28;88292;-85
2021/04/20 02:56:49;;;;;;;20.33;18.73;;;5.60;99.90;;;;;;4945996;28;86365;-85
2021/04/20 02:59:15;;;;;;;29.52;27.45;;;5.20;99.90;;;;;;4941056;28;86813;-85
2021/04/20 03:01:42;;;;;;;22.02;20.25;;;5.30;99.90;;;;;;4934701;28;86746;-88
2021/04/20 03:04:16;;;;;;;21.83;20.17;;;5.20;99.90;;;;;;4937846;28;88177;-84
2021/04/20 03:06:42;;;;;;;16.95;15.50;;;5.30;99.90;;;;;;4929509;28;88805;-84
2021/04/20 03:09:10;;;;;;;14.05;12.77;;;5.30;99.90;;;;;;4933973;28;87213;-86
2021/04/20 03:11:52;;;;;;;22.42;20.35;;;5.30;99.90;;;;;;4931949;28;86932;-87
2021/04/20 03:14:19;;;;;;;17.40;15.82;;;5.30;99.90;;;;;;4935160;28;87062;-87
2021/04/20 03:16:45;;;;;;;28.15;26.13;;;;;;;;;;4932279;28;88806;-88
2021/04/20 03:19:10;;;;;;;22.50;20.88;;;5.20;99.90;;;;;;4927067;28;86709;-87
2021/04/20 03:21:37;;;;;;;23.55;21.55;;;5.30;99.90;;;;;;4936986;28;86206;-87
2021/04/20 03:24:03;;;;;;;24.92;22.92;;;5.30;99.90;;;;;;4925338;28;89270;-86
2021/04/20 03:26:38;;;;;;;18.98;17.35;;;5.30;99.90;;;;;;4927686;28;86927;-87
2021/04/20 03:29:09;;;;;;;18.90;17.20;;;5.30;99.90;;;;;;4953899;28;87820;-86
2021/04/20 03:31:41;;;;;;;18.20;16.30;;;5.30;99.90;;;;;;4957694;28;86149;-86
2021/04/20 03:34:16;;;;;;;16.80;15.10;;;5.30;99.90;;;;;;4953148;28;87991;-86
2021/04/20 03:37:13;;;;;;;17.98;15.05;;;5.30;99.90;;;;;;4921268;28;86851;-86
2021/04/20 03:39:46;;;;;;;20.48;17.50;;;5.40;99.90;;;;;;4912100;28;86584;-86
2021/04/20 03:42:21;;;;;;;16.90;15.10;;;5.30;99.90;;;;;;4957858;28;86056;-85
2021/04/20 03:44:56;;;;;;;20.63;18.88;;;5.40;99.90;;;;;;4933190;28;87032;-86
2021/04/20 03:47:28;;;;;;;25.40;23.27;;;5.40;99.90;;;;;;4937119;28;88272;-86
2021/04/20 03:49:57;;;;;;;32.70;30.70;;;5.40;99.90;;;;;;4939564;28;86824;-87
2021/04/20 03:52:35;;;;;;;19.65;18.15;;;5.40;99.90;;;;;;4928348;28;86999;-87
2021/04/20 03:55:03;;;;;;;14.27;12.88;;;5.40;99.90;;;;;;4932215;28;89138;-87
2021/04/20 03:57:32;;;;;;;15.75;14.32;;;5.40;99.90;;;;;;4937661;28;90153;-87
2021/04/20 04:00:00;;;;;;;15.95;14.52;;;5.40;99.90;;;;;;4934773;28;86909;-87
2021/04/20 04:02:25;;;;;;;16.17;14.60;;;5.30;99.90;;;;;;4932040;28;86363;-87
2021/04/20 04:04:53;;;;;;;15.43;13.82;;;5.30;99.90;;;;;;4928306;28;92644;-87
2021/04/20 04:07:20;;;;;;;19.55;18.20;;;5.30;99.90;;;;;;4927130;28;87100;-87
2021/04/20 04:09:48;;;;;;;25.00;23.25;;;5.30;99.90;;;;;;4926453;28;86889;-87
2021/04/20 04:12:16;;;;;;;23.45;21.85;;;5.20;99.90;;;;;;4922075;28;86196;-88
2021/04/20 04:14:43;;;;;;;24.73;22.98;;;5.30;99.90;;;;;;4925835;28;87088;-87
2021/04/20 04:17:13;;;;;;;20.45;18.75;;;5.40;99.90;;;;;;4923609;28;89323;-88
2021/04/20 04:19:44;;;;;;;25.30;23.53;;;5.40;99.90;;;;;;4924999;28;87930;-87
2021/04/20 04:22:16;;;;;;;20.02;18.50;;;5.40;99.90;;;;;;4925510;28;86820;-87
2021/04/20 04:24:48;;;;;;;27.23;25.33;;;5.30;99.90;;;;;;4917358;28;89211;-87
2021/04/20 04:27:16;;;;;;;21.13;19.52;;;5.30;99.90;;;;;;4940225;28;88129;-87
2021/04/20 04:29:43;;;;;;;23.50;21.83;;;5.30;99.90;;;;;;4943557;28;86247;-88
2021/04/20 04:32:11;;;;;;;25.27;23.33;;;5.30;99.90;;;;;;4927483;28;86289;-87
2021/04/20 04:34:40;;;;;;;25.45;23.45;;;5.20;99.90;;;;;;4928505;28;86713;-87
2021/04/20 04:37:08;;;;;;;21.65;20.05;;;5.20;99.90;;;;;;4928208;28;88071;-87
2021/04/20 04:39:35;;;;;;;22.30;20.60;;;5.20;99.90;;;;;;4912902;28;86731;-88
2021/04/20 04:42:01;;;;;;;22.67;21.02;;;5.20;99.90;;;;;;4925186;28;87442;-88
2021/04/20 04:44:27;;;;;;;25.63;23.65;;;5.30;99.90;;;;;;4920731;28;87978;-86
2021/04/20 04:46:53;;;;;;;25.63;23.52;;;5.30;99.90;;;;;;4917534;28;90161;-88
2021/04/20 04:49:21;;;;;;;29.25;27.27;;;5.30;99.90;;;;;;4924306;28;86927;-87
2021/04/20 04:51:49;;;;;;;34.65;32.35;;;5.30;99.90;;;;;;4922558;28;87171;-87
2021/04/20 04:54:17;;;;;;;31.95;29.63;;;5.30;99.90;;;;;;4922939;28;88712;-86
2021/04/20 04:56:43;;;;;;;32.25;30.05;;;5.30;99.90;;;;;;4924361;28;89397;-86
2021/04/20 04:59:13;;;;;;;37.05;34.63;;;5.30;99.90;;;;;;4926013;28;86869;-86
2021/04/20 05:01:41;;;;;;;42.08;39.25;;;5.30;99.90;;;;;;4921439;28;86182;-86
2021/04/20 05:04:09;;;;;;;51.50;48.33;;;5.30;99.90;;;;;;4917540;28;87375;-86
2021/04/20 05:06:46;;;;;;;61.28;57.78;;;5.30;99.90;;;;;;4917880;28;86866;-86
2021/04/20 05:09:14;;;;;;;60.17;56.67;;;5.30;99.90;;;;;;4918319;28;87987;-87
2021/04/20 05:11:42;;;;;;;61.28;57.63;;;5.30;99.90;;;;;;4914825;28;86700;-86
2021/04/20 05:14:13;;;;;;;51.55;48.28;;;5.30;99.90;;;;;;4920123;28;87878;-87
2021/04/20 05:16:41;;;;;;;68.07;64.38;;;5.30;99.90;;;;;;4921654;28;86977;-88
2021/04/20 05:19:10;;;;;;;62.35;58.90;;;5.40;99.90;;;;;;4913983;28;86658;-87
2021/04/20 05:21:36;;;;;;;59.35;55.83;;;5.40;99.90;;;;;;4920953;28;87018;-86
2021/04/20 05:24:02;;;;;;;17.10;15.52;;;5.40;99.90;;;;;;4921941;28;86858;-87
2021/04/20 05:26:31;;;;;;;16.10;14.52;;;5.50;99.90;;;;;;4927517;28;86996;-89
2021/04/20 05:29:05;;;;;;;19.80;18.02;;;5.60;99.90;;;;;;4907445;28;86782;-87
2021/04/20 05:31:31;;;;;;;18.25;16.48;;;5.80;99.90;;;;;;4926064;28;86873;-85
2021/04/20 05:34:03;;;;;;;15.55;14.05;;;5.90;99.90;;;;;;4921933;28;88176;-86
2021/04/20 05:36:29;;;;;;;18.67;16.67;;;6.00;99.90;;;;;;4926115;28;88178;-84
2021/04/20 05:38:57;;;;;;;32.05;29.75;;;6.20;99.90;;;;;;4925770;28;87005;-84
2021/04/20 05:41:28;;;;;;;27.70;25.58;;;6.30;99.90;;;;;;4932340;28;86796;-85
2021/04/20 05:43:56;;;;;;;16.70;15.10;;;6.40;99.90;;;;;;4923851;28;87790;-85
2021/04/20 05:46:24;;;;;;;23.60;21.77;;;6.60;99.90;;;;;;4927128;28;88211;-85
2021/04/20 05:48:51;;;;;;;58.20;54.63;;;6.80;99.90;;;;;;4920156;28;86997;-85
2021/04/20 05:51:18;;;;;;;66.50;62.67;;;7.10;99.90;;;;;;4929685;28;86327;-85
2021/04/20 05:53:45;;;;;;;30.75;28.42;;;7.40;99.90;;;;;;4925929;28;90067;-84
2021/04/20 05:56:11;;;;;;;18.90;16.90;;;7.90;99.90;;;;;;4927480;28;87051;-85
2021/04/20 05:58:37;;;;;;;44.20;41.10;;;7.80;99.90;;;;;;4924796;28;87985;-86
2021/04/20 06:01:04;;;;;;;22.33;20.40;;;8.20;99.90;;;;;;4924262;28;87010;-85
2021/04/20 06:03:33;;;;;;;27.58;25.42;;;8.40;99.90;;;;;;4929944;28;87782;-86
2021/04/20 06:06:01;;;;;;;34.75;32.03;;;8.50;99.90;;;;;;4924655;28;86846;-86
2021/04/20 06:08:28;;;;;;;22.35;20.05;;;8.70;99.90;;;;;;4920633;28;86894;-86
2021/04/20 06:10:55;;;;;;;29.20;26.40;;;8.70;99.90;;;;;;4926870;28;87189;-84
2021/04/20 06:13:21;;;;;;;31.55;28.77;;;8.70;99.90;;;;;;4925976;28;87637;-84
2021/04/20 06:15:50;;;;;;;27.90;25.48;;;8.70;99.90;;;;;;4930019;28;86360;-84
2021/04/20 06:18:16;;;;;;;22.63;20.38;;;8.80;99.90;;;;;;4932734;28;86925;-85
2021/04/20 06:20:41;;;;;;;22.65;20.17;;;8.80;99.90;;;;;;4931362;28;86685;-85
2021/04/20 06:23:07;;;;;;;25.27;18.83;;;8.80;99.90;;;;;;4932939;28;89623;-85
2021/04/20 06:25:34;;;;;;;22.85;20.55;;;8.70;99.90;;;;;;4939154;28;88437;-85
2021/04/20 06:27:59;;;;;;;25.60;23.23;;;8.80;99.90;;;;;;4925325;28;86942;-85
2021/04/20 06:30:25;;;;;;;25.27;22.98;;;8.90;99.90;;;;;;4926499;28;86933;-84
2021/04/20 06:32:51;;;;;;;41.58;38.70;;;8.90;99.90;;;;;;4937741;28;87112;-85
2021/04/20 06:35:20;;;;;;;48.30;45.13;;;9.00;99.90;;;;;;4929872;28;87030;-84
2021/04/20 06:37:48;;;;;;;25.40;23.25;;;9.10;99.90;;;;;;4925525;28;86832;-84
2021/04/20 06:40:35;;;;;;;21.45;17.65;;;9.10;99.90;;;;;;4924267;28;86309;-85
2021/04/20 06:43:03;;;;;;;23.60;21.38;;;9.20;99.90;;;;;;4933069;28;87335;-85
2021/04/20 06:45:41;;;;;;;23.23;21.05;;;9.30;99.90;;;;;;4924134;28;86905;-85
2021/04/20 06:48:35;;;;;;;25.45;23.20;;;9.50;99.90;;;;;;4929124;28;87897;-86
2021/04/20 06:51:04;;;;;;;25.15;23.13;;;9.60;99.90;;;;;;4926671;28;86932;-84
2021/04/20 06:53:37;;;;;;;30.15;27.73;;;9.70;99.90;;;;;;4926386;28;87014;-84
2021/04/20 06:56:06;;;;;;;31.25;28.48;;;9.90;99.90;;;;;;4931453;28;87012;-84
2021/04/20 06:58:39;;;;;;;25.13;22.73;;;9.90;99.90;;;;;;4932443;28;87055;-84
2021/04/20 07:01:09;;;;;;;24.40;22.27;;;10.00;99.90;;;;;;4919684;28;87124;-83
2021/04/20 07:04:01;;;;;;;22.67;20.63;;;10.10;99.90;;;;;;4919050;28;87627;-84
2021/04/20 07:06:32;;;;;;;24.90;22.65;;;10.30;99.90;;;;;;4910647;28;87605;-84
2021/04/20 07:09:01;;;;;;;23.52;21.52;;;10.50;99.90;;;;;;4927502;28;86860;-84
2021/04/20 07:11:30;;;;;;;31.50;29.17;;;10.60;99.90;;;;;;4919936;28;87007;-84
2021/04/20 07:13:59;;;;;;;29.25;27.00;;;10.80;99.90;;;;;;4924964;28;88572;-84
2021/04/20 07:16:25;;;;;;;26.73;24.65;;;11.00;99.90;;;;;;4928047;28;88018;-83
2021/04/20 07:19:15;;;;;;;38.88;36.20;;;11.20;99.90;;;;;;4923424;28;86633;-86
2021/04/20 07:22:07;;;;;;;49.33;46.28;;;11.50;99.90;;;;;;4941069;28;87087;-85
2021/04/20 07:25:06;;;;;;;59.42;56.17;;;12.00;99.90;;;;;;4922733;28;86916;-85
2021/04/20 07:27:47;;;;;;;20.42;18.65;;;12.70;98.70;;;;;;4928755;28;87504;-88
2021/04/20 07:30:30;;;;;;;27.20;25.27;;;14.00;95.80;;;;;;4928793;28;86968;-85
2021/04/20 07:33:28;;;;;;;25.08;23.27;;;15.70;92.10;;;;;;4929071;28;86193;-85
2021/04/20 07:36:17;;;;;;;32.00;30.08;;;17.70;76.60;;;;;;4918028;28;87241;-85
2021/04/20 07:38:53;;;;;;;50.80;48.08;;;19.30;65.20;;;;;;4930164;28;87141;-85
2021/04/20 07:41:23;;;;;;;43.58;41.17;;;20.80;59.30;;;;;;4931306;28;87607;-85
2021/04/20 07:44:01;;;;;;;42.92;40.38;;;22.20;55.20;;;;;;4919229;28;87039;-85
2021/04/20 07:46:34;;;;;;;166.90;159.75;;;23.30;50.80;;;;;;4947459;28;86914;-85
2021/04/20 07:49:12;;;;;;;317.67;303.67;;;24.00;46.80;;;;;;4946756;28;86668;-85
2021/04/20 07:52:05;;;;;;;112.70;107.50;;;24.80;45.50;;;;;;4937716;28;86721;-85
2021/04/20 07:54:43;;;;;;;112.38;107.07;;;25.90;41.80;;;;;;4929150;28;87088;-85
2021/04/20 07:57:34;;;;;;;94.45;89.72;;;27.20;40.00;;;;;;4942232;28;87208;-85
2021/04/20 08:00:09;;;;;;;38.85;36.72;;;27.70;37.20;;;;;;4944397;28;86873;-85
2021/04/20 08:03:04;;;;;;;64.07;60.88;;;28.50;37.60;;;;;;4933440;28;86717;-85
2021/04/20 08:05:39;;;;;;;76.88;73.10;;;28.90;36.80;;;;;;4929355;28;87084;-85
2021/04/20 08:08:14;;;;;;;323.95;309.05;;;28.80;34.20;;;;;;4923914;28;88030;-85
2021/04/20 08:11:33;;;;;;;216.57;206.75;;;27.20;36.30;;;;;;4927276;28;90132;-85
2021/04/20 08:14:08;;;;;;;81.35;77.43;;;25.40;37.80;;;;;;4906511;28;87158;-84
2021/04/20 08:16:37;;;;;;;78.15;74.45;;;23.90;40.10;;;;;;4915024;28;87061;-85
2021/04/20 08:19:09;;;;;;;107.68;102.63;;;22.70;41.70;;;;;;4929568;28;87364;-85
2021/04/20 08:21:39;;;;;;;35.95;33.75;;;21.50;52.70;;;;;;4919491;28;87592;-85
2021/04/20 08:24:07;;;;;;;43.08;40.60;;;21.40;45.40;;;;;;4916222;28;87000;-85
2021/04/20 08:26:39;;;;;;;48.97;46.13;;;21.40;45.60;;;;;;4927833;28;86259;-85
2021/04/20 08:29:10;;;;;;;51.47;48.78;;;21.30;45.80;;;;;;4930695;28;86800;-85
2021/04/20 08:31:42;;;;;;;;;;;21.10;46.00;;;;;;4925463;28;88766;-85
2021/04/20 08:34:18;;;;;;;49.22;46.63;;;21.00;45.90;;;;;;4927916;28;87917;-85
2021/04/20 08:37:10;;;;;;;68.95;65.15;;;21.60;45.50;;;;;;4927150;28;86891;-85
2021/04/20 08:39:50;;;;;;;80.68;76.82;;;23.10;48.20;;;;;;4926801;28;88064;-85
2021/04/20 08:42:53;;;;;;;95.78;91.43;;;23.20;43.40;;;;;;4924675;28;87108;-85
2021/04/20 08:45:55;;;;;;;51.58;48.70;;;23.80;41.60;;;;;;4926660;28;87113;-84
2021/04/20 08:48:42;;;;;;;55.15;52.33;;;23.90;42.20;;;;;;4902189;28;86976;-85
2021/04/20 08:51:13;;;;;;;28.73;26.92;;;24.60;40.40;;;;;;4922931;28;87241;-85
2021/04/20 08:53:49;;;;;;;;;;;24.60;40.60;;;;;;4921911;28;86968;-86
2021/04/20 08:56:34;;;;;;;34.70;32.67;;;24.90;40.70;;;;;;4924800;28;86988;-86
2021/04/20 08:59:30;;;;;;;47.72;45.20;;;26.10;39.20;;;;;;4922158;28;86954;-85
2021/04/20 09:02:16;;;;;;;158.88;151.85;;;26.70;37.40;;;;;;4918756;28;89422;-86
2021/04/20 09:05:13;;;;;;;170.07;162.95;;;26.60;37.90;;;;;;4912292;28;88159;-86
2021/04/20 09:07:45;;;;;;;167.52;160.43;;;28.30;36.20;;;;;;4922537;28;86984;-86
2021/04/20 09:10:23;;;;;;;246.18;235.05;;;30.00;34.80;;;;;;4919368;28;86915;-86
2021/04/20 09:12:58;;;;;;;86.13;82.18;;;32.00;32.80;;;;;;4922017;28;87047;-86
2021/04/20 09:15:28;;;;;;;121.45;115.82;;;33.80;31.60;;;;;;4920681;28;87047;-87
2021/04/20 09:18:01;;;;;;;294.60;283.08;;;35.90;29.50;;;;;;4922707;28;88499;-86
2021/04/20 09:20:49;;;;;;;133.93;127.60;;;35.90;29.30;;;;;;4925850;28;86209;-86
2021/04/20 09:23:25;;;;;;;145.93;139.25;;;37.20;28.50;;;;;;4918210;28;87406;-86
2021/04/20 09:26:25;;;;;;;221.90;212.30;;;38.20;27.90;;;;;;4915182;28;88053;-87
2021/04/20 09:29:00;;;;;;;;;;;38.80;27.70;;;;;;4907145;28;87846;-85
2021/04/20 09:31:35;;;;;;;126.50;121.00;;;39.20;26.60;;;;;;4921763;28;87023;-87
2021/04/20 09:34:01;;;;;;;94.25;90.18;;;39.50;26.50;;;;;;4923876;28;88189;-84
2021/04/20 09:36:28;;;;;;;127.50;121.90;;;40.20;26.80;;;;;;4927566;28;86948;-85
2021/04/20 09:38:56;;;;;;;91.88;87.45;;;40.60;25.90;;;;;;4922058;28;86973;-85
2021/04/20 09:41:50;;;;;;;68.10;64.85;;;41.00;25.50;;;;;;4918711;28;87057;-86
2021/04/20 09:44:38;;;;;;;110.68;105.60;;;41.10;25.60;;;;;;4920682;28;88394;-87
2021/04/20 09:47:24;;;;;;;77.20;73.55;;;41.20;25.20;;;;;;4919587;28;87911;-87
2021/04/20 09:49:58;;;;;;;191.48;183.85;;;41.50;25.10;;;;;;4917953;28;87067;-87
2021/04/20 09:52:33;;;;;;;89.40;85.47;;;39.50;24.10;;;;;;4935020;28;86970;-86
2021/04/20 09:55:07;;;;;;;90.35;86.25;;;39.30;24.80;;;;;;4918752;28;88651;-87
2021/04/20 09:57:38;;;;;;;131.63;126.03;;;37.20;25.00;;;;;;4921073;28;88412;-85
2021/04/20 10:00:08;;;;;;;115.95;111.13;;;35.40;26.70;;;;;;4924685;28;86893;-85
2021/04/20 10:02:59;;;;;;;57.08;54.47;;;35.30;26.70;;;;;;4925192;28;86793;-85
2021/04/20 10:05:36;;;;;;;41.65;39.38;;;36.30;26.70;;;;;;4923133;28;87638;-85
2021/04/20 10:08:18;;;;;;;94.78;90.75;;;37.40;26.10;;;;;;4921440;28;87532;-86
2021/04/20 10:11:09;;;;;;;176.45;169.40;;;38.70;25.50;;;;;;4925550;28;87168;-86
2021/04/20 10:13:58;;;;;;;100.53;96.22;;;38.80;24.50;;;;;;4920948;28;86222;-86
2021/04/20 10:17:01;;;;;;;146.55;140.70;;;38.80;25.20;;;;;;4919738;28;86941;-85
2021/04/20 10:19:53;;;;;;;121.70;116.53;;;39.40;24.70;;;;;;4917446;28;87228;-87
2021/04/20 10:22:32;;;;;;;138.82;132.65;;;40.60;24.80;;;;;;4924193;28;87949;-87
2021/04/20 10:25:24;;;;;;;141.45;135.65;;;41.60;23.90;;;;;;4917544;28;87011;-89
2021/04/20 10:27:57;;;;;;;80.43;76.97;;;41.90;24.10;;;;;;4923819;28;87628;-88
2021/04/20 10:30:29;;;;;;;99.32;95.20;;;42.30;23.70;;;;;;4922791;28;86820;-89
2021/04/20 10:32:56;;;;;;;59.60;56.90;;;42.60;23.70;;;;;;4923926;28;87087;-91
2021/04/20 10:35:37;;;;;;;50.53;48.10;;;42.90;25.70;;;;;;4919402;28;87104;-89
2021/04/20 10:38:12;;;;;;;105.63;101.00;;;42.90;23.60;;;;;;4926399;28;86985;-89
2021/04/20 10:40:41;;;;;;;86.28;82.32;;;42.70;24.60;;;;;;4927811;28;87545;-88
2021/04/20 10:43:12;;;;;;;;;;;43.00;24.70;;;;;;4923564;28;86867;-89
2021/04/20 10:45:40;;;;;;;101.30;96.97;;;42.10;23.60;;;;;;4913477;28;86901;-89
2021/04/20 10:48:08;;;;;;;157.30;150.80;;;41.10;28.10;;;;;;4924935;28;88495;-87
2021/04/20 10:50:38;;;;;;;149.75;143.57;;;40.80;26.50;;;;;;4924435;28;90876;-88
2021/04/20 10:53:12;;;;;;;;;;;40.70;24.60;;;;;;4926713;28;86953;-88
2021/04/20 10:55:45;;;;;;;50.67;48.40;;;40.50;24.70;;;;;;4928185;28;87028;-90
2021/04/20 10:58:12;;;;;;;63.80;60.75;;;40.70;24.30;;;;;;4920213;28;88017;-90
2021/04/20 11:00:41;;;;;;;71.15;68.07;;;41.40;24.00;;;;;;4929382;28;86747;-90
2021/04/20 11:03:08;;;;;;;75.25;71.95;;;41.80;23.90;;;;;;4918184;28;87624;-89
2021/04/20 11:05:35;;;;;;;52.45;49.95;;;41.90;23.40;;;;;;4928550;28;86166;-90
2021/04/20 11:08:01;;;;;;;68.90;65.90;;;42.10;23.60;;;;;;4938157;28;87037;-89
2021/04/20 11:10:35;;;;;;;46.47;44.38;;;42.40;23.20;;;;;;4929896;28;87351;-85
2021/04/20 11:13:01;;;;;;;88.82;84.88;;;42.30;22.50;;;;;;4919692;28;87889;-86
2021/04/20 11:15:30;;;;;;;154.07;147.73;;;42.30;22.90;;;;;;4931274;28;86907;-85
2021/04/20 11:17:56;;;;;;;163.57;156.75;;;42.40;22.80;;;;;;4937744;28;87087;-86
2021/04/20 11:20:24;;;;;;;123.05;117.78;;;42.20;22.80;;;;;;4918780;28;87833;-85
2021/04/20 11:23:12;;;;;;;60.73;58.07;;;42.60;22.80;;;;;;4923331;28;87297;-88
2021/04/20 11:25:55;;;;;;;66.03;63.13;;;42.50;22.70;;;;;;4924660;28;87166;-86
2021/04/20 11:28:36;;;;;;;52.08;49.67;;;42.50;22.40;;;;;;4914522;28;88304;-87
2021/04/20 11:31:04;;;;;;;49.05;46.75;;;42.40;22.60;;;;;;4918099;28;87440;-88
2021/04/20 11:33:56;;;;;;;53.92;51.67;;;42.50;22.60;;;;;;4916536;28;86986;-86
2021/04/20 11:36:29;;;;;;;38.90;37.08;;;42.20;22.40;;;;;;4919163;28;86911;-87
2021/04/20 11:39:01;;;;;;;33.63;32.03;;;41.70;22.60;;;;;;4928365;28;87884;-86
2021/04/20 11:41:35;;;;;;;44.65;42.53;;;41.60;22.60;;;;;;4935156;28;88279;-86
2021/04/20 11:44:05;;;;;;;67.95;65.00;;;41.80;22.50;;;;;;4925054;28;87054;-88
2021/04/20 11:46:34;;;;;;;55.65;53.10;;;41.50;22.90;;;;;;4919835;28;87181;-86
2021/04/20 11:49:30;;;;;;;60.30;57.70;;;41.60;22.70;;;;;;4919777;28;88989;-87
2021/04/20 11:51:57;;;;;;;102.07;97.90;;;41.10;22.20;;;;;;4904157;28;88045;-87
2021/04/20 11:54:30;;;;;;;94.95;90.88;;;40.90;22.90;;;;;;4925336;28;87023;-87
2021/04/20 11:57:01;;;;;;;92.63;88.75;;;41.10;22.80;;;;;;4913402;28;86083;-87
2021/04/20 11:59:28;;;;;;;109.07;104.38;;;41.10;22.80;;;;;;4920089;28;90199;-88
2021/04/20 12:01:55;;;;;;;118.40;113.20;;;41.20;22.60;;;;;;4923552;28;87314;-87
2021/04/20 12:04:34;;;;;;;107.80;103.07;;;40.80;22.90;;;;;;4951270;28;87080;-88
2021/04/20 12:07:01;;;;;;;139.32;133.27;;;41.10;23.00;;;;;;4947809;28;86417;-87
2021/04/20 12:09:32;;;;;;;124.40;119.05;;;41.10;23.10;;;;;;4936601;28;87235;-87
2021/04/20 12:11:58;;;;;;;203.82;195.75;;;41.40;23.10;;;;;;4934078;28;88626;-87
2021/04/20 12:14:28;;;;;;;96.18;92.07;;;40.60;23.00;;;;;;4950069;28;86305;-86
2021/04/20 12:16:54;;;;;;;;;;;40.10;22.70;;;;;;4944679;28;86615;-87
2021/04/20 12:19:24;;;;;;;137.32;131.63;;;40.00;23.00;;;;;;4930212;28;87138;-87
2021/04/20 12:21:55;;;;;;;67.20;64.20;;;40.20;22.70;;;;;;4919554;28;86874;-87
2021/04/20 12:24:24;;;;;;;113.00;108.35;;;40.50;22.70;;;;;;4916302;28;87006;-88
2021/04/20 12:26:55;;;;;;;156.63;150.50;;;40.80;23.00;;;;;;4919825;28;87063;-86
2021/04/20 12:29:26;;;;;;;69.28;66.25;;;40.90;23.20;;;;;;4919280;28;88244;-86
2021/04/20 12:31:54;;;;;;;69.97;66.88;;;39.80;22.70;;;;;;4927543;28;89017;-86
2021/04/20 12:34:30;;;;;;;159.63;153.55;;;38.60;23.00;;;;;;4935990;28;86982;-85
2021/04/20 12:37:03;;;;;;;263.55;253.30;;;37.80;23.20;;;;;;4926642;28;87129;-85
2021/04/20 12:39:39;;;;;;;208.30;200.02;;;37.30;24.10;;;;;;4929757;28;88183;-85
2021/04/20 12:42:18;;;;;;;178.75;171.43;;;37.30;24.00;;;;;;4928536;28;88448;-85
2021/04/20 12:44:48;;;;;;;203.90;195.85;;;37.70;23.90;;;;;;4930121;28;86987;-85
2021/04/20 12:47:16;;;;;;;189.05;181.73;;;37.30;23.50;;;;;;4919785;28;86155;-84
2021/04/20 12:49:50;;;;;;;195.63;188.15;;;37.40;23.70;;;;;;4922984;28;87849;-86
2021/04/20 12:52:24;;;;;;;175.40;168.57;;;37.50;23.40;;;;;;4922488;28;86970;-85
2021/04/20 12:54:58;;;;;;;202.00;194.40;;;37.40;23.90;;;;;;4922809;28;87995;-86
2021/04/20 12:57:30;;;;;;;113.93;109.22;;;37.40;23.30;;;;;;4917401;28;87504;-86
2021/04/20 13:00:00;;;;;;;127.95;122.75;;;37.20;23.30;;;;;;4932963;28;87112;-86
2021/04/20 13:02:27;;;;;;;82.97;79.50;;;37.10;23.40;;;;;;4930286;28;87115;-86
2021/04/20 13:05:01;;;;;;;76.82;73.40;;;36.80;23.30;;;;;;4923895;28;86969;-86
2021/04/20 13:07:28;;;;;;;65.18;62.42;;;36.70;23.80;;;;;;4924864;28;86961;-86
2021/04/20 13:09:54;;;;;;;65.47;62.72;;;36.70;23.00;;;;;;4913558;28;87226;-86
2021/04/20 13:12:28;;;;;;;59.42;56.88;;;36.80;23.20;;;;;;4916977;28;88335;-86
2021/04/20 13:14:59;;;;;;;65.50;62.65;;;37.30;23.30;;;;;;4922898;28;86927;-86
2021/04/20 13:17:26;;;;;;;64.78;61.92;;;37.10;23.10;;;;;;4923630;28;87326;-85
2021/04/20 13:20:00;;;;;;;66.68;63.63;;;36.90;23.30;;;;;;4922613;28;89556;-86
2021/04/20 13:22:29;;;;;;;65.22;62.50;;;36.50;23.40;;;;;;4920643;28;87674;-86
2021/04/20 13:25:00;;;;;;;74.28;71.15;;;36.70;23.20;;;;;;4914103;28;86933;-86
2021/04/20 13:27:28;;;;;;;59.50;56.90;;;36.40;23.20;;;;;;4939947;28;86900;-85
2021/04/20 13:29:54;;;;;;;67.45;64.65;;;36.30;23.10;;;;;;4935295;28;87065;-86
2021/04/20 13:32:25;;;;;;;83.38;79.93;;;36.20;23.50;;;;;;4923608;28;87499;-86
2021/04/20 13:34:54;;;;;;;61.40;58.80;;;36.00;23.60;;;;;;4915482;28;87040;-86
2021/04/20 13:37:32;;;;;;;67.90;64.95;;;35.70;23.30;;;;;;4925201;28;86323;-86
2021/04/20 13:40:05;;;;;;;80.68;77.38;;;35.70;23.40;;;;;;4925750;28;87203;-86
2021/04/20 13:42:34;;;;;;;73.97;70.97;;;35.60;23.60;;;;;;4931972;28;86900;-86
2021/04/20 13:45:09;;;;;;;71.70;68.80;;;35.20;23.40;;;;;;4924742;28;87925;-86
2021/04/20 13:47:38;;;;;;;68.65;65.85;;;35.20;23.50;;;;;;4911951;28;87245;-87
2021/04/20 13:50:05;;;;;;;67.70;64.90;;;34.60;23.40;;;;;;4923992;28;87163;-86
2021/04/20 13:52:45;;;;;;;51.17;48.97;;;34.60;23.90;;;;;;4924071;28;86855;-87
2021/04/20 13:55:15;;;;;;;44.28;42.38;;;34.30;24.00;;;;;;4928892;28;86949;-87
2021/04/20 13:57:52;;;;;;;45.58;43.58;;;33.80;23.90;;;;;;4942043;28;87141;-86
2021/04/20 14:00:20;;;;;;;37.47;35.80;;;33.80;23.70;;;;;;4924073;28;87196;-86
2021/04/20 14:02:54;;;;;;;44.15;42.20;;;33.60;24.20;;;;;;4922746;28;87339;-86
2021/04/20 14:05:34;;;;;;;34.60;33.00;;;33.60;24.30;;;;;;4920895;28;87004;-86
2021/04/20 14:08:02;;;;;;;;;;;33.50;24.70;;;;;;4921647;28;87006;-88
2021/04/20 14:10:29;;;;;;;36.30;34.80;;;33.20;24.30;;;;;;4925072;28;88537;-86
2021/04/20 14:13:06;;;;;;;38.45;36.80;;;32.80;23.90;;;;;;4927535;28;87629;-86
2021/04/20 14:15:35;;;;;;;39.50;37.70;;;33.00;24.00;;;;;;4928637;28;87079;-86
2021/04/20 14:18:23;;;;;;;46.85;44.70;;;32.50;23.40;;;;;;4928152;28;86970;-86
2021/04/20 14:20:49;;;;;;;41.63;39.92;;;32.30;23.20;;;;;;4928572;28;88594;-87
2021/04/20 14:23:20;;;;;;;51.13;49.03;;;32.00;22.80;;;;;;4925235;28;87816;-86
2021/04/20 14:25:47;;;;;;;52.88;50.72;;;31.80;23.10;;;;;;4927864;28;86973;-86
2021/04/20 14:28:30;;;;;;;39.58;37.85;;;31.80;22.80;;;;;;4935362;28;86114;-85
2021/04/20 14:30:59;;;;;;;67.50;64.72;;;31.80;23.50;;;;;;4931824;28;87316;-86
2021/04/20 14:33:33;;;;;;;85.50;82.13;;;31.40;24.00;;;;;;4927873;28;87264;-86
2021/04/20 14:36:00;;;;;;;84.03;80.65;;;30.90;24.00;;;;;;4923331;28;88128;-86
2021/04/20 14:38:38;;;;;;;55.60;53.20;;;30.30;24.30;;;;;;4924543;28;87004;-85
2021/04/20 14:41:05;;;;;;;240.23;231.02;;;29.40;24.90;;;;;;4923865;28;86924;-86
2021/04/20 14:43:35;;;;;;;304.10;292.40;;;29.00;25.40;;;;;;4929076;28;87765;-86
2021/04/20 14:46:02;;;;;;;;;;;28.80;25.40;;;;;;4925808;28;86788;-86
2021/04/20 14:48:30;;;;;;;236.15;227.25;;;28.80;26.10;;;;;;4938763;28;86346;-86
2021/04/20 14:50:57;;;;;;;54.35;52.00;;;28.80;25.10;;;;;;4934211;28;88647;-86
2021/04/20 14:53:27;;;;;;;70.82;67.88;;;28.60;25.90;;;;;;4944039;28;86918;-86
2021/04/20 14:55:53;;;;;;;;;;;28.60;26.40;;;;;;4941032;28;86886;-86
2021/04/20 14:58:26;;;;;;;92.57;88.85;;;28.50;26.50;;;;;;4943102;28;86236;-86
2021/04/20 15:00:57;;;;;;;88.43;84.85;;;28.50;27.00;;;;;;4940740;28;88296;-85
2021/04/20 15:03:26;;;;;;;104.13;99.93;;;28.30;26.60;;;;;;4927194;28;88417;-86
2021/04/20 15:05:59;;;;;;;66.93;64.13;;;28.30;26.60;;;;;;4926706;28;86998;-86
2021/04/20 15:08:39;;;;;;;39.55;37.80;;;28.00;27.10;;;;;;4929131;28;86655;-86
2021/04/20 15:11:07;;;;;;;38.03;36.42;;;27.90;27.20;;;;;;4946502;28;86609;-85
2021/04/20 15:13:44;;;;;;;35.78;34.20;;;27.50;26.90;;;;;;4937365;28;86259;-86
2021/04/20 15:16:26;;;;;;;51.47;49.17;;;27.20;27.40;;;;;;4939056;28;86871;-85
2021/04/20 15:19:00;;;;;;;66.97;64.15;;;27.00;27.40;;;;;;4936575;28;86136;-85
2021/04/20 15:21:41;;;;;;;78.55;75.35;;;26.60;27.50;;;;;;4939081;28;87623;-85
2021/04/20 15:24:24;;;;;;;93.20;89.35;;;26.40;27.50;;;;;;4942272;28;87265;-85
2021/04/20 15:26:58;;;;;;;175.20;168.45;;;26.30;27.60;;;;;;4935094;28;87932;-85
2021/04/20 15:29:32;;;;;;;243.30;233.88;;;26.00;28.10;;;;;;4939717;28;87055;-85
2021/04/20 15:32:08;;;;;;;126.45;121.45;;;25.50;28.10;;;;;;4931783;28;87385;-86
2021/04/20 15:34:35;;;;;;;87.35;83.53;;;25.10;28.50;;;;;;4927612;28;89945;-85
2021/04/20 15:37:10;;;;;;;127.90;122.60;;;24.80;28.90;;;;;;4916731;28;86934;-85
2021/04/20 15:39:37;;;;;;;128.00;122.85;;;24.70;29.00;;;;;;4922837;28;88392;-85
2021/04/20 15:42:08;;;;;;;81.68;78.28;;;24.60;29.00;;;;;;4921842;28;88594;-85
2021/04/20 15:44:38;;;;;;;80.28;76.97;;;24.50;29.60;;;;;;4925316;28;86323;-85